Time;durP1;ratioP1;P1;durP2;ratioP2;P2;SDS_P1;SDS_P2;PMS_P1;PMS_P2;Temp;Humidity;BMP_temperature;BMP_pressure;BME280_temperature;BME280_humidity;BME280_pressure;Samples;Min_cycle;Max_cycle;Signal;HPM_P1;HPM_P2
2023/08/02 00:01:31;;;;;;;6.60;2.88;;;16.60;99.90;;;;;;5114957;28;20202;-47
2023/08/02 00:03:57;;;;;;;8.20;3.28;;;16.60;99.90;;;;;;5114480;28;20173;-47
2023/08/02 00:06:23;;;;;;;4.40;3.22;;;16.50;99.90;;;;;;5114650;28;20169;-49
2023/08/02 00:08:48;;;;;;;6.90;3.42;;;16.60;99.90;;;;;;5114758;28;20256;-51
2023/08/02 00:11:17;;;;;;;7.35;3.38;;;16.60;99.90;;;;;;5114751;28;20253;-48
2023/08/02 00:13:43;;;;;;;7.28;3.00;;;16.50;99.90;;;;;;5114331;28;20209;-52
2023/08/02 00:16:12;;;;;;;8.68;3.30;;;16.50;99.90;;;;;;5114657;28;20205;-49
2023/08/02 00:18:38;;;;;;;6.72;3.28;;;16.60;99.90;;;;;;5114240;28;20316;-49
2023/08/02 00:21:03;;;;;;;7.10;3.40;;;16.50;99.90;;;;;;5114629;28;20257;-50
2023/08/02 00:23:29;;;;;;;8.70;3.30;;;16.50;99.90;;;;;;5114489;28;20598;-49
2023/08/02 00:25:57;;;;;;;9.18;3.67;;;16.60;99.90;;;;;;5114380;28;20626;-50
2023/08/02 00:28:23;;;;;;;7.60;3.70;;;16.60;99.90;;;;;;5114191;28;20260;-49
2023/08/02 00:30:48;;;;;;;8.68;3.28;;;16.60;99.90;;;;;;5114326;28;20687;-48
2023/08/02 00:33:14;;;;;;;7.30;3.65;;;16.60;99.90;;;;;;5114211;28;20685;-50
2023/08/02 00:35:44;;;;;;;8.60;3.25;;;16.70;99.90;;;;;;5114295;28;20756;-52
2023/08/02 00:38:10;;;;;;;7.63;3.42;;;16.70;99.90;;;;;;5114280;28;20192;-50
2023/08/02 00:40:36;;;;;;;5.43;2.92;;;16.70;99.90;;;;;;5114182;28;20173;-49
2023/08/02 00:43:01;;;;;;;6.13;3.72;;;16.60;99.90;;;;;;5114150;28;20234;-48
2023/08/02 00:45:27;;;;;;;5.70;3.70;;;16.60;99.90;;;;;;5114170;28;20173;-48
2023/08/02 00:47:53;;;;;;;8.52;3.97;;;16.70;99.90;;;;;;5114111;28;20177;-48
2023/08/02 00:50:21;;;;;;;7.22;3.58;;;16.60;99.90;;;;;;5113766;28;20173;-49
2023/08/02 00:52:47;;;;;;;10.02;3.80;;;16.70;99.90;;;;;;5113938;28;20197;-51
2023/08/02 00:55:13;;;;;;;5.70;3.25;;;16.70;99.90;;;;;;5114071;27;20181;-51
2023/08/02 00:57:38;;;;;;;6.43;3.83;;;16.70;99.90;;;;;;5114024;28;20176;-50
2023/08/02 01:00:05;;;;;;;8.02;3.67;;;16.70;99.90;;;;;;5113175;28;20208;-51
2023/08/02 01:02:31;;;;;;;7.47;3.50;;;16.70;99.90;;;;;;5113843;28;20181;-51
2023/08/02 01:04:57;;;;;;;6.97;3.58;;;16.70;99.90;;;;;;5113893;28;20182;-49
2023/08/02 01:07:30;;;;;;;6.57;3.65;;;16.80;99.90;;;;;;5113558;28;20169;-48
2023/08/02 01:10:09;;;;;;;8.68;3.70;;;16.90;99.90;;;;;;5113674;28;20552;-49
2023/08/02 01:12:37;;;;;;;8.23;3.30;;;17.00;99.90;;;;;;5113813;28;20199;-50
2023/08/02 01:15:06;;;;;;;9.20;3.30;;;16.90;99.90;;;;;;5113849;28;20260;-49
2023/08/02 01:17:32;;;;;;;5.78;3.50;;;17.00;99.90;;;;;;5113474;28;20169;-50
2023/08/02 01:20:05;;;;;;;9.80;3.28;;;16.90;99.90;;;;;;5113291;28;20251;-51
2023/08/02 01:22:31;;;;;;;5.53;3.00;;;17.00;99.90;;;;;;5113752;28;20169;-51
2023/08/02 01:24:59;;;;;;;6.95;3.78;;;17.00;99.90;;;;;;5113758;28;20260;-51
2023/08/02 01:27:32;;;;;;;5.63;3.22;;;16.90;99.90;;;;;;5113701;28;20204;-51
2023/08/02 01:30:00;;;;;;;8.20;3.38;;;16.80;99.90;;;;;;5113790;28;20169;-51
2023/08/02 01:32:26;;;;;;;5.38;3.13;;;16.80;99.90;;;;;;5113535;28;20172;-50
2023/08/02 01:34:52;;;;;;;6.38;3.45;;;16.90;99.90;;;;;;5113615;28;20527;-49
2023/08/02 01:37:18;;;;;;;6.53;3.30;;;16.90;99.90;;;;;;5113710;28;20181;-47
2023/08/02 01:39:44;;;;;;;6.40;3.45;;;16.90;99.90;;;;;;5113318;28;20169;-46
2023/08/02 01:42:14;;;;;;;4.63;3.15;;;16.90;99.90;;;;;;5112274;28;20530;-46
2023/08/02 01:44:39;;;;;;;4.95;3.00;;;16.90;99.90;;;;;;5113548;28;20170;-50
2023/08/02 01:47:05;;;;;;;6.07;3.00;;;16.90;99.90;;;;;;5113540;28;20176;-47
2023/08/02 01:49:31;;;;;;;6.15;2.95;;;17.00;99.90;;;;;;5113248;28;20597;-48
2023/08/02 01:51:56;;;;;;;6.82;2.97;;;17.00;99.90;;;;;;5113477;28;20568;-50
2023/08/02 01:54:22;;;;;;;4.95;3.15;;;17.10;99.90;;;;;;5113408;28;20201;-50
2023/08/02 01:56:47;;;;;;;4.47;2.97;;;17.10;99.90;;;;;;5113467;28;20208;-52
2023/08/02 01:59:13;;;;;;;6.38;3.03;;;17.10;99.90;;;;;;5112170;28;20268;-47
2023/08/02 02:01:39;;;;;;;4.85;3.20;;;17.10;99.90;;;;;;5113436;28;20626;-51
2023/08/02 02:04:05;;;;;;;5.40;3.10;;;17.10;99.90;;;;;;5113397;28;20181;-49
2023/08/02 02:06:30;;;;;;;9.07;3.35;;;17.10;99.90;;;;;;5113361;28;20173;-48
2023/08/02 02:08:56;;;;;;;6.85;3.03;;;17.10;99.90;;;;;;5113402;28;20191;-52
2023/08/02 02:11:22;;;;;;;3.92;2.78;;;17.10;99.90;;;;;;5113861;28;20176;-48
2023/08/02 02:13:49;;;;;;;6.70;3.20;;;17.00;99.90;;;;;;5116892;28;20205;-48
2023/08/02 02:16:14;;;;;;;6.78;3.20;;;17.10;99.90;;;;;;5116961;28;20223;-50
2023/08/02 02:18:40;;;;;;;6.28;2.85;;;17.10;99.90;;;;;;5116781;28;20249;-46
2023/08/02 02:21:06;;;;;;;3.92;3.15;;;17.10;99.90;;;;;;5116932;28;20178;-47
2023/08/02 02:23:31;;;;;;;5.10;3.20;;;17.10;99.90;;;;;;5116859;27;20216;-47
2023/08/02 02:25:57;;;;;;;5.72;3.30;;;17.00;99.90;;;;;;5116710;28;20173;-51
2023/08/02 02:28:23;;;;;;;7.60;3.28;;;17.00;99.90;;;;;;5116658;28;20522;-49
2023/08/02 02:30:49;;;;;;;4.78;2.88;;;17.00;99.90;;;;;;5116672;28;20644;-48
2023/08/02 02:33:14;;;;;;;5.32;2.90;;;17.00;99.90;;;;;;5116769;28;20201;-48
2023/08/02 02:35:40;;;;;;;4.72;3.03;;;16.90;99.90;;;;;;5116242;28;20189;-53
2023/08/02 02:38:06;;;;;;;9.82;3.08;;;16.90;99.90;;;;;;5116513;28;20170;-50
2023/08/02 02:40:31;;;;;;;4.38;2.97;;;17.00;99.90;;;;;;5116142;28;20192;-51
2023/08/02 02:42:57;;;;;;;5.22;2.95;;;17.00;99.90;;;;;;5116368;28;20230;-50
2023/08/02 02:45:22;;;;;;;3.92;2.40;;;17.10;99.90;;;;;;5116359;28;20511;-49
2023/08/02 02:47:48;;;;;;;4.78;2.97;;;17.10;99.90;;;;;;5116327;28;20198;-51
2023/08/02 02:50:14;;;;;;;4.65;3.20;;;17.10;99.90;;;;;;5116257;28;20200;-50
2023/08/02 02:52:41;;;;;;;4.60;2.80;;;17.10;99.90;;;;;;5116136;28;20212;-50
2023/08/02 02:55:08;;;;;;;3.85;2.65;;;17.00;99.90;;;;;;5116108;28;20702;-49
2023/08/02 02:57:34;;;;;;;4.00;2.95;;;16.90;99.90;;;;;;5116060;28;20219;-51
2023/08/02 02:59:59;;;;;;;6.18;3.10;;;16.80;99.90;;;;;;5116046;28;20178;-48
2023/08/02 03:02:25;;;;;;;3.72;2.92;;;16.80;99.90;;;;;;5115704;28;20222;-51
2023/08/02 03:04:50;;;;;;;4.68;3.15;;;16.80;99.90;;;;;;5116024;28;20180;-51
2023/08/02 03:07:16;;;;;;;3.58;2.97;;;16.80;99.90;;;;;;5115937;28;20193;-52
2023/08/02 03:09:42;;;;;;;4.95;3.75;;;16.70;99.90;;;;;;5115915;28;20201;-51
2023/08/02 03:12:08;;;;;;;5.18;3.55;;;16.80;99.90;;;;;;5115833;28;20204;-51
2023/08/02 03:14:34;;;;;;;5.75;3.90;;;16.70;99.90;;;;;;5115721;28;20208;-50
2023/08/02 03:16:59;;;;;;;4.38;3.40;;;16.80;99.90;;;;;;5115760;28;20226;-51
2023/08/02 03:19:25;;;;;;;6.43;3.50;;;16.80;99.90;;;;;;5115646;28;20228;-48
2023/08/02 03:21:50;;;;;;;4.97;3.80;;;16.80;99.90;;;;;;5115652;28;20177;-47
2023/08/02 03:24:16;;;;;;;5.95;4.07;;;16.90;99.90;;;;;;5114494;28;20744;-51
2023/08/02 03:26:42;;;;;;;7.45;3.90;;;17.00;99.90;;;;;;5115601;28;20173;-48
2023/08/02 03:29:07;;;;;;;5.68;3.90;;;16.90;99.90;;;;;;5115497;28;20170;-47
2023/08/02 03:31:33;;;;;;;7.70;4.15;;;16.90;99.90;;;;;;5115705;28;20180;-48
2023/08/02 03:33:59;;;;;;;9.57;4.20;;;16.80;99.90;;;;;;5115573;28;20201;-50
2023/08/02 03:36:24;;;;;;;5.55;4.13;;;16.90;99.90;;;;;;5115418;28;20653;-52
2023/08/02 03:38:50;;;;;;;7.40;4.72;;;16.90;99.90;;;;;;5114063;28;20181;-51
2023/08/02 03:41:16;;;;;;;6.93;4.45;;;16.80;99.90;;;;;;5115241;28;20169;-50
2023/08/02 03:43:42;;;;;;;4.97;4.28;;;16.70;99.90;;;;;;5115222;28;20534;-49
2023/08/02 03:46:07;;;;;;;5.43;3.90;;;16.80;99.90;;;;;;5115127;28;20268;-51
2023/08/02 03:48:33;;;;;;;6.00;4.00;;;16.80;99.90;;;;;;5115140;28;20500;-47
2023/08/02 03:50:59;;;;;;;6.70;4.47;;;16.70;99.90;;;;;;5115118;28;20166;-49
2023/08/02 03:53:30;;;;;;;4.25;3.55;;;16.70;99.90;;;;;;5114975;28;20197;-46
2023/08/02 03:55:55;;;;;;;6.68;4.00;;;16.70;99.90;;;;;;5115011;28;20260;-50
2023/08/02 03:58:21;;;;;;;5.38;4.03;;;16.60;99.90;;;;;;5114701;28;20261;-47
2023/08/02 04:00:47;;;;;;;5.25;3.83;;;16.60;99.90;;;;;;5114947;28;20161;-46
2023/08/02 04:03:12;;;;;;;4.72;3.85;;;16.70;99.90;;;;;;5114575;28;20519;-49
2023/08/02 04:05:38;;;;;;;4.07;3.72;;;16.80;99.90;;;;;;5114861;28;20181;-51
2023/08/02 04:08:04;;;;;;;4.65;3.88;;;16.70;99.90;;;;;;5114766;28;20173;-52
2023/08/02 04:10:35;;;;;;;6.32;4.15;;;16.50;99.90;;;;;;5114735;28;20634;-49
2023/08/02 04:13:00;;;;;;;4.30;3.80;;;16.60;99.90;;;;;;5114431;28;20678;-49
2023/08/02 04:15:26;;;;;;;4.22;3.70;;;16.60;99.90;;;;;;5114657;28;20181;-48
2023/08/02 04:17:51;;;;;;;6.97;3.40;;;16.60;99.90;;;;;;5114852;28;20165;-49
2023/08/02 04:20:17;;;;;;;5.35;3.80;;;16.60;99.90;;;;;;5114137;28;20307;-48
2023/08/02 04:22:43;;;;;;;4.07;3.30;;;16.50;99.90;;;;;;5114505;28;20191;-49
2023/08/02 04:25:09;;;;;;;5.20;3.50;;;16.50;99.90;;;;;;5114494;28;20526;-45
2023/08/02 04:27:34;;;;;;;3.35;3.08;;;16.50;99.90;;;;;;5114086;28;20662;-48
2023/08/02 04:30:00;;;;;;;5.03;3.45;;;16.60;99.90;;;;;;5113571;28;20185;-48
2023/08/02 04:32:26;;;;;;;3.92;3.33;;;16.50;99.90;;;;;;5114307;28;20844;-46
2023/08/02 04:34:52;;;;;;;5.03;3.85;;;16.50;99.90;;;;;;5113190;28;20679;-48
2023/08/02 04:37:17;;;;;;;3.78;3.33;;;16.50;99.90;;;;;;5113158;28;20232;-48
2023/08/02 04:39:43;;;;;;;3.80;3.40;;;16.50;99.90;;;;;;5111942;28;20634;-50
2023/08/02 04:42:09;;;;;;;4.25;3.63;;;16.60;99.90;;;;;;5111968;28;20248;-49
2023/08/02 04:44:34;;;;;;;4.38;3.72;;;16.60;99.90;;;;;;5114236;28;20183;-48
2023/08/02 04:47:00;;;;;;;4.10;3.40;;;16.50;99.90;;;;;;5113895;28;20260;-48
2023/08/02 04:49:25;;;;;;;4.97;3.38;;;16.60;99.90;;;;;;5114390;28;20280;-48
2023/08/02 04:51:51;;;;;;;6.72;3.83;;;16.60;99.90;;;;;;5114114;28;20178;-47
2023/08/02 04:54:17;;;;;;;4.30;3.80;;;16.70;99.90;;;;;;5113700;28;20558;-50
2023/08/02 04:56:42;;;;;;;4.13;3.22;;;16.60;99.90;;;;;;5114170;28;20181;-48
2023/08/02 04:59:10;;;;;;;5.15;3.17;;;16.60;99.90;;;;;;5113900;28;20237;-49
2023/08/02 05:01:35;;;;;;;5.35;3.03;;;16.60;99.90;;;;;;5113779;28;20614;-52
2023/08/02 05:04:01;;;;;;;4.70;3.45;;;16.70;99.90;;;;;;5113629;28;20177;-48
2023/08/02 05:06:27;;;;;;;4.88;2.80;;;16.70;99.90;;;;;;5113993;28;20173;-50
2023/08/02 05:08:52;;;;;;;3.58;3.10;;;16.70;99.90;;;;;;5113879;28;20705;-49
2023/08/02 05:11:18;;;;;;;3.47;3.13;;;16.70;99.90;;;;;;5113930;28;20516;-48
2023/08/02 05:13:43;;;;;;;3.80;2.97;;;16.70;99.90;;;;;;5113790;28;20204;-48
2023/08/02 05:16:13;;;;;;;3.53;2.88;;;16.70;99.90;;;;;;5113890;28;20201;-49
2023/08/02 05:18:39;;;;;;;3.45;2.80;;;16.70;99.90;;;;;;5113426;28;20231;-48
2023/08/02 05:21:15;;;;;;;4.07;2.65;;;16.70;99.90;;;;;;5113853;28;20165;-50
2023/08/02 05:23:41;;;;;;;4.15;2.83;;;16.60;99.90;;;;;;5113667;28;20169;-51
2023/08/02 05:26:07;;;;;;;3.55;2.85;;;16.60;99.90;;;;;;5113456;28;20631;-49
2023/08/02 05:28:34;;;;;;;3.05;2.50;;;16.70;99.90;;;;;;5113794;28;20177;-49
2023/08/02 05:31:00;;;;;;;2.63;2.42;;;16.70;99.90;;;;;;5113418;28;20217;-50
2023/08/02 05:33:25;;;;;;;2.30;2.10;;;16.80;99.90;;;;;;5113615;28;20670;-51
2023/08/02 05:35:51;;;;;;;4.15;2.38;;;16.90;99.90;;;;;;5113698;28;20661;-47
2023/08/02 05:38:17;;;;;;;2.33;2.13;;;16.80;99.90;;;;;;5113663;28;20177;-48
2023/08/02 05:40:43;;;;;;;4.32;2.47;;;16.80;99.90;;;;;;5113891;28;20174;-50
2023/08/02 05:43:09;;;;;;;2.60;2.33;;;16.80;99.90;;;;;;5113626;28;20173;-47
2023/08/02 05:45:35;;;;;;;2.58;2.38;;;16.90;99.90;;;;;;5113753;28;20176;-49
2023/08/02 05:48:00;;;;;;;3.83;2.10;;;16.70;99.90;;;;;;5116837;28;20250;-52
2023/08/02 05:50:28;;;;;;;2.40;2.20;;;16.80;99.90;;;;;;5117519;28;20529;-48
2023/08/02 05:52:53;;;;;;;2.15;1.95;;;16.90;99.90;;;;;;5117378;28;20196;-48
2023/08/02 05:55:20;;;;;;;5.15;2.03;;;16.70;99.90;;;;;;5116144;28;20181;-53
2023/08/02 05:57:45;;;;;;;3.45;1.95;;;16.80;99.90;;;;;;5117312;28;20522;-49
2023/08/02 06:00:11;;;;;;;2.17;1.98;;;16.90;99.90;;;;;;5117329;28;20175;-50
2023/08/02 06:02:38;;;;;;;2.05;1.73;;;16.90;99.90;;;;;;5116920;28;20182;-49
2023/08/02 06:05:04;;;;;;;1.58;1.48;;;16.90;99.90;;;;;;5117173;28;20572;-47
2023/08/02 06:07:30;;;;;;;3.03;1.80;;;16.80;99.90;;;;;;5117184;28;20176;-51
2023/08/02 06:09:56;;;;;;;3.55;1.60;;;16.80;99.90;;;;;;5117076;28;20522;-47
2023/08/02 06:12:21;;;;;;;1.63;1.30;;;16.90;99.90;;;;;;5116970;28;20170;-50
2023/08/02 06:14:47;;;;;;;1.92;1.45;;;16.80;99.90;;;;;;5115865;28;20186;-47
2023/08/02 06:17:12;;;;;;;1.30;1.20;;;16.80;99.90;;;;;;5116980;28;20214;-50
2023/08/02 06:19:39;;;;;;;1.23;1.10;;;16.90;99.90;;;;;;5116639;28;20232;-51
2023/08/02 06:22:04;;;;;;;0.95;0.95;;;16.90;99.90;;;;;;5116914;28;20170;-52
2023/08/02 06:24:30;;;;;;;1.40;0.93;;;16.90;99.90;;;;;;5116613;28;20181;-47
2023/08/02 06:26:56;;;;;;;1.33;1.05;;;17.00;99.90;;;;;;5116801;28;20174;-47
2023/08/02 06:29:21;;;;;;;1.60;1.05;;;17.00;99.90;;;;;;5116734;28;20169;-50
2023/08/02 06:31:47;;;;;;;1.88;0.90;;;17.10;99.90;;;;;;5116643;27;20272;-51
2023/08/02 06:34:12;;;;;;;1.95;1.05;;;17.20;99.90;;;;;;5116647;28;20246;-50
2023/08/02 06:36:38;;;;;;;0.75;0.70;;;17.20;99.90;;;;;;5116580;28;20185;-48
2023/08/02 06:39:05;;;;;;;1.48;0.75;;;17.20;99.90;;;;;;5116566;28;20173;-49
2023/08/02 06:41:31;;;;;;;2.10;0.90;;;17.10;99.90;;;;;;5116428;28;20618;-51
2023/08/02 06:43:56;;;;;;;2.85;0.70;;;17.20;99.90;;;;;;5116410;28;20188;-48
2023/08/02 06:46:22;;;;;;;2.28;0.80;;;17.30;99.90;;;;;;5116125;28;20169;-50
2023/08/02 06:48:48;;;;;;;0.70;0.70;;;17.40;99.90;;;;;;5116384;28;20177;-49
2023/08/02 06:51:13;;;;;;;1.35;0.60;;;17.40;99.90;;;;;;5116271;28;20165;-49
2023/08/02 06:53:40;;;;;;;1.48;0.80;;;17.30;99.90;;;;;;5115926;28;20193;-51
2023/08/02 06:56:16;;;;;;;0.63;0.57;;;17.30;99.90;;;;;;5116149;28;20206;-50
2023/08/02 06:58:43;;;;;;;1.20;0.70;;;17.30;99.90;;;;;;5114953;28;20622;-48
2023/08/02 07:01:16;;;;;;;0.70;0.70;;;17.30;99.90;;;;;;5115812;28;20567;-52
2023/08/02 07:03:42;;;;;;;0.50;0.50;;;17.40;99.90;;;;;;5116123;28;20165;-50
2023/08/02 07:06:09;;;;;;;1.70;0.52;;;17.50;99.90;;;;;;5116058;28;20499;-52
2023/08/02 07:08:35;;;;;;;0.80;0.65;;;17.60;99.90;;;;;;5116259;28;20630;-46
2023/08/02 07:11:01;;;;;;;1.00;0.57;;;17.60;99.90;;;;;;5115844;28;20265;-50
2023/08/02 07:13:26;;;;;;;1.23;0.70;;;17.60;99.90;;;;;;5115832;28;20287;-51
2023/08/02 07:15:52;;;;;;;0.60;0.60;;;17.60;99.90;;;;;;5115857;28;20184;-51
2023/08/02 07:18:17;;;;;;;0.65;0.60;;;17.60;99.90;;;;;;5115621;28;20199;-51
2023/08/02 07:20:43;;;;;;;1.30;0.82;;;17.70;99.90;;;;;;5115730;28;20205;-52
2023/08/02 07:23:09;;;;;;;0.70;0.70;;;17.80;99.90;;;;;;5115681;28;20614;-52
2023/08/02 07:25:35;;;;;;;2.15;0.77;;;17.90;99.90;;;;;;5114375;28;20173;-51
2023/08/02 07:28:00;;;;;;;0.80;0.80;;;18.00;99.90;;;;;;5115479;28;20173;-48
2023/08/02 07:30:26;;;;;;;0.95;0.70;;;18.00;99.90;;;;;;5115522;28;20173;-51
2023/08/02 07:32:52;;;;;;;2.40;0.70;;;18.10;99.90;;;;;;5115331;28;20205;-52
2023/08/02 07:35:18;;;;;;;3.45;1.10;;;18.10;99.90;;;;;;5115392;28;20200;-51
2023/08/02 07:37:43;;;;;;;5.18;2.60;;;18.10;99.90;;;;;;5115625;28;20499;-50
2023/08/02 07:40:09;;;;;;;1.75;1.10;;;18.10;99.90;;;;;;5115283;28;20166;-49
2023/08/02 07:42:35;;;;;;;1.40;1.30;;;18.30;99.90;;;;;;5114344;28;20172;-50
2023/08/02 07:45:08;;;;;;;1.55;1.20;;;18.40;99.90;;;;;;5115276;28;20173;-52
2023/08/02 07:47:35;;;;;;;1.77;1.67;;;18.60;99.90;;;;;;5115266;28;20177;-49
2023/08/02 07:50:00;;;;;;;2.10;1.90;;;18.80;99.90;;;;;;5115140;28;20165;-50
2023/08/02 07:52:26;;;;;;;3.80;1.83;;;18.90;99.90;;;;;;5115016;28;20181;-48
2023/08/02 07:54:53;;;;;;;2.67;1.38;;;19.00;99.90;;;;;;5115073;28;20169;-52
2023/08/02 07:57:20;;;;;;;1.40;1.30;;;19.10;99.90;;;;;;5114716;28;20177;-49
2023/08/02 07:59:46;;;;;;;1.60;1.50;;;19.10;99.90;;;;;;5114867;28;20584;-48
2023/08/02 08:02:12;;;;;;;1.20;1.10;;;19.20;99.90;;;;;;5114882;28;20177;-51
2023/08/02 08:04:38;;;;;;;1.75;1.20;;;19.20;99.90;;;;;;5114562;28;20184;-51
2023/08/02 08:07:04;;;;;;;1.73;1.10;;;19.10;99.90;;;;;;5114825;28;20260;-50
2023/08/02 08:09:30;;;;;;;1.52;1.10;;;19.10;99.90;;;;;;5114332;28;20269;-49
2023/08/02 08:11:55;;;;;;;2.35;1.35;;;19.30;99.90;;;;;;5114727;28;20256;-50
2023/08/02 08:14:21;;;;;;;1.15;1.00;;;19.30;99.90;;;;;;5114316;28;20235;-50
2023/08/02 08:16:47;;;;;;;1.35;1.25;;;19.20;99.90;;;;;;5114647;28;20264;-52
2023/08/02 08:19:14;;;;;;;1.83;1.00;;;19.20;99.90;;;;;;5114314;28;20282;-51
2023/08/02 08:21:39;;;;;;;1.58;1.23;;;19.40;99.90;;;;;;5114796;28;20568;-51
2023/08/02 08:24:06;;;;;;;1.58;1.30;;;19.50;99.90;;;;;;5114161;28;20174;-49
2023/08/02 08:26:32;;;;;;;2.67;1.30;;;19.50;99.90;;;;;;5114432;28;20188;-51
2023/08/02 08:28:58;;;;;;;2.55;1.60;;;19.80;99.90;;;;;;5114385;28;20534;-50
2023/08/02 08:31:23;;;;;;;3.38;1.77;;;20.00;99.90;;;;;;5114403;28;20180;-50
2023/08/02 08:33:49;;;;;;;2.70;2.05;;;20.10;99.90;;;;;;5114236;28;20193;-47
2023/08/02 08:36:15;;;;;;;2.50;1.58;;;20.20;99.90;;;;;;5114604;28;20239;-48
2023/08/02 08:38:44;;;;;;;1.83;1.67;;;20.20;99.90;;;;;;5114287;28;20177;-48
2023/08/02 08:41:14;;;;;;;2.95;1.80;;;20.10;99.90;;;;;;5114257;28;20612;-47
2023/08/02 08:43:40;;;;;;;2.55;2.00;;;20.00;99.90;;;;;;5114452;28;20614;-48
2023/08/02 08:46:07;;;;;;;1.92;1.83;;;20.10;99.90;;;;;;5114161;28;20184;-49
2023/08/02 08:48:36;;;;;;;3.60;1.88;;;20.20;99.90;;;;;;5114136;28;20185;-51
2023/08/02 08:51:03;;;;;;;2.08;1.88;;;20.20;99.90;;;;;;5114104;28;20189;-47
2023/08/02 08:53:34;;;;;;;2.40;2.08;;;20.20;99.90;;;;;;5113988;28;20282;-51
2023/08/02 08:56:04;;;;;;;2.13;1.88;;;20.20;99.90;;;;;;5114054;28;20177;-50
2023/08/02 08:58:35;;;;;;;2.13;2.00;;;20.10;99.90;;;;;;5114093;28;20158;-51
2023/08/02 09:01:06;;;;;;;3.78;2.00;;;20.20;99.90;;;;;;5114087;28;20171;-49
2023/08/02 09:03:36;;;;;;;2.47;2.10;;;20.30;99.90;;;;;;5114073;28;20638;-51
2023/08/02 09:06:03;;;;;;;2.30;2.20;;;20.40;99.90;;;;;;5113675;28;20611;-49
2023/08/02 09:08:35;;;;;;;2.53;2.33;;;20.40;99.90;;;;;;5113900;28;20165;-50
2023/08/02 09:11:01;;;;;;;2.72;2.53;;;20.50;99.90;;;;;;5114334;28;20252;-52
2023/08/02 09:13:27;;;;;;;2.78;2.58;;;20.70;99.90;;;;;;5113816;28;20319;-48
2023/08/02 09:16:12;;;;;;;2.75;2.50;;;20.80;99.90;;;;;;5113590;28;20185;-49
2023/08/02 09:18:45;;;;;;;3.22;2.42;;;20.90;99.90;;;;;;5113513;28;20269;-48
2023/08/02 09:21:16;;;;;;;3.08;2.75;;;20.80;99.90;;;;;;5114462;28;20161;-51
2023/08/02 09:24:00;;;;;;;3.38;3.03;;;20.60;99.90;;;;;;5118023;28;20217;-49
2023/08/02 09:26:27;;;;;;;2.92;2.72;;;20.50;99.90;;;;;;5117908;28;20173;-51
2023/08/02 09:29:07;;;;;;;5.03;3.60;;;20.40;99.90;;;;;;5117836;28;20184;-49
2023/08/02 09:31:35;;;;;;;4.03;3.72;;;20.20;99.90;;;;;;5117874;28;20170;-50
2023/08/02 09:34:01;;;;;;;3.78;3.47;;;20.20;99.90;;;;;;5117748;28;20215;-51
2023/08/02 09:36:36;;;;;;;4.63;3.90;;;20.30;99.90;;;;;;5117757;28;20172;-51
2023/08/02 09:39:10;;;;;;;3.65;3.45;;;20.40;99.90;;;;;;5117766;28;20248;-48
2023/08/02 09:41:35;;;;;;;4.07;3.75;;;20.40;99.90;;;;;;5117675;28;20244;-49
2023/08/02 09:44:01;;;;;;;5.15;3.80;;;20.40;99.90;;;;;;5117482;28;20578;-48
2023/08/02 09:46:35;;;;;;;3.45;3.15;;;20.40;99.90;;;;;;5117600;28;20177;-49
2023/08/02 09:49:15;;;;;;;5.60;3.22;;;20.30;99.90;;;;;;5117549;28;20506;-48
2023/08/02 09:51:43;;;;;;;3.60;3.30;;;20.40;99.90;;;;;;5117475;28;20613;-50
2023/08/02 09:54:09;;;;;;;4.10;2.85;;;20.50;99.90;;;;;;5117510;28;20208;-51
2023/08/02 09:56:37;;;;;;;3.75;2.63;;;20.60;99.90;;;;;;5117387;28;20177;-51
2023/08/02 09:59:04;;;;;;;2.67;1.83;;;20.50;99.90;;;;;;5117267;28;20180;-51
2023/08/02 10:01:31;;;;;;;2.50;1.20;;;20.30;99.90;;;;;;5117242;28;20180;-52
2023/08/02 10:04:04;;;;;;;4.10;1.42;;;20.10;99.90;;;;;;5117256;28;20264;-48
2023/08/02 10:06:44;;;;;;;3.05;1.50;;;20.00;99.90;;;;;;5117230;28;20166;-51
2023/08/02 10:09:14;;;;;;;3.47;1.30;;;19.90;99.90;;;;;;5116847;28;20630;-49
2023/08/02 10:12:09;;;;;;;2.97;1.65;;;19.90;99.90;;;;;;5116688;28;20618;-50
2023/08/02 10:14:35;;;;;;;4.03;1.75;;;20.30;99.90;;;;;;5117011;28;20241;-52
2023/08/02 10:17:02;;;;;;;3.40;1.52;;;20.60;99.90;;;;;;5116640;28;20642;-48
2023/08/02 10:19:29;;;;;;;3.67;1.80;;;21.00;99.90;;;;;;5116434;27;20228;-50
2023/08/02 10:21:58;;;;;;;6.13;2.00;;;21.20;99.90;;;;;;5116916;28;20217;-52
2023/08/02 10:24:27;;;;;;;4.45;2.08;;;21.20;99.90;;;;;;5116797;28;20208;-52
2023/08/02 10:26:57;;;;;;;7.25;1.90;;;20.90;99.90;;;;;;5116784;28;20549;-51
2023/08/02 10:29:26;;;;;;;5.90;2.00;;;20.80;99.90;;;;;;5116729;28;20184;-50
2023/08/02 10:31:52;;;;;;;7.13;2.30;;;20.70;99.90;;;;;;5116420;28;20173;-48
2023/08/02 10:34:51;;;;;;;5.85;2.40;;;21.00;99.90;;;;;;5116547;28;20273;-51
2023/08/02 10:37:18;;;;;;;8.93;2.50;;;21.30;99.90;;;;;;5082496;28;20196;-51
2023/08/02 10:39:47;;;;;;;7.22;2.63;;;21.50;99.90;;;;;;5116561;28;20173;-52
2023/08/02 10:42:16;;;;;;;4.85;2.20;;;21.70;99.90;;;;;;5116531;28;20252;-52
2023/08/02 10:44:57;;;;;;;5.90;2.30;;;21.90;99.90;;;;;;5116445;28;20193;-52
2023/08/02 10:47:41;;;;;;;9.43;2.30;;;22.00;99.90;;;;;;5116132;28;20169;-53
2023/08/02 10:50:07;;;;;;;5.32;2.50;;;22.00;99.90;;;;;;5116386;28;20519;-52
2023/08/02 10:52:38;;;;;;;7.60;2.05;;;21.90;99.90;;;;;;5116361;28;20190;-50
2023/08/02 10:55:18;;;;;;;6.55;2.00;;;21.60;99.90;;;;;;5116177;28;20177;-52
2023/08/02 10:57:56;;;;;;;5.80;1.60;;;21.70;99.90;;;;;;5116227;28;20172;-50
2023/08/02 11:00:24;;;;;;;8.25;1.80;;;21.70;99.90;;;;;;5116113;28;20162;-51
2023/08/02 11:02:51;;;;;;;4.78;1.67;;;21.70;99.90;;;;;;5115978;28;20177;-52
2023/08/02 11:05:37;;;;;;;8.25;1.73;;;21.70;99.90;;;;;;5116319;28;20176;-50
2023/08/02 11:08:02;;;;;;;6.65;1.77;;;21.80;99.90;;;;;;5116074;28;20157;-52
2023/08/02 11:10:28;;;;;;;4.32;1.52;;;21.90;99.90;;;;;;5116207;28;20577;-48
2023/08/02 11:12:55;;;;;;;5.30;1.70;;;21.90;99.90;;;;;;5115736;28;20189;-52
2023/08/02 11:15:24;;;;;;;5.57;1.60;;;21.70;99.90;;;;;;5115765;28;20181;-52
2023/08/02 11:17:56;;;;;;;2.85;1.50;;;21.70;99.90;;;;;;5115641;28;20169;-48
2023/08/02 11:20:26;;;;;;;5.95;1.52;;;21.90;99.90;;;;;;5115767;28;20229;-50
2023/08/02 11:22:53;;;;;;;4.57;1.77;;;22.00;99.90;;;;;;5115464;28;20173;-50
2023/08/02 11:25:22;;;;;;;7.93;1.63;;;22.20;99.90;;;;;;5115398;28;20268;-48
2023/08/02 11:27:58;;;;;;;5.80;1.77;;;22.10;99.90;;;;;;5115738;28;20172;-53
2023/08/02 11:30:24;;;;;;;4.28;1.63;;;22.00;99.90;;;;;;5115489;28;20194;-49
2023/08/02 11:32:50;;;;;;;7.07;1.70;;;21.80;99.90;;;;;;5115324;28;20205;-50
2023/08/02 11:35:19;;;;;;;4.60;1.45;;;21.80;99.90;;;;;;5115160;28;20515;-50
2023/08/02 11:37:45;;;;;;;5.85;1.85;;;21.90;99.90;;;;;;5115081;28;20626;-50
2023/08/02 11:40:12;;;;;;;4.65;1.30;;;22.10;99.90;;;;;;5115385;28;20303;-47
2023/08/02 11:42:48;;;;;;;5.47;1.60;;;22.50;99.90;;;;;;5115300;28;20205;-52
2023/08/02 11:45:26;;;;;;;3.08;1.20;;;22.60;99.90;;;;;;5114519;28;20177;-48
2023/08/02 11:47:52;;;;;;;4.57;1.23;;;22.20;99.90;;;;;;5115329;28;20160;-51
2023/08/02 11:50:27;;;;;;;3.30;1.20;;;21.70;99.90;;;;;;5115103;28;20173;-51
2023/08/02 11:53:01;;;;;;;4.88;1.35;;;21.40;99.90;;;;;;5115418;28;20202;-50
2023/08/02 11:55:27;;;;;;;3.70;1.35;;;21.30;99.90;;;;;;5115100;28;20606;-52
2023/08/02 11:57:53;;;;;;;4.03;1.25;;;21.20;99.90;;;;;;5115032;28;20180;-52
2023/08/02 12:00:19;;;;;;;4.03;1.00;;;21.10;99.90;;;;;;5114995;28;20207;-49
2023/08/02 12:02:46;;;;;;;6.13;1.15;;;21.10;99.90;;;;;;5114930;28;20191;-48
2023/08/02 12:05:19;;;;;;;2.28;1.00;;;21.30;99.90;;;;;;5115112;28;20192;-48
2023/08/02 12:07:45;;;;;;;4.38;1.40;;;21.40;99.90;;;;;;5114825;28;20255;-51
2023/08/02 12:10:26;;;;;;;2.35;1.10;;;21.30;99.90;;;;;;5114783;28;20193;-49
2023/08/02 12:12:52;;;;;;;4.63;1.20;;;21.70;99.90;;;;;;5114792;28;20206;-51
2023/08/02 12:15:18;;;;;;;4.45;1.05;;;22.00;99.90;;;;;;5114676;28;20177;-51
2023/08/02 12:17:44;;;;;;;2.88;1.10;;;22.10;99.90;;;;;;5114539;28;20185;-50
2023/08/02 12:20:28;;;;;;;4.60;1.08;;;22.00;99.90;;;;;;5114685;28;20229;-51
2023/08/02 12:22:54;;;;;;;8.48;1.20;;;22.00;99.90;;;;;;5114613;28;20164;-52
2023/08/02 12:25:20;;;;;;;1.63;0.95;;;22.10;99.90;;;;;;5114536;28;20768;-52
2023/08/02 12:28:05;;;;;;;3.42;0.88;;;22.20;99.90;;;;;;5114165;28;20180;-52
2023/08/02 12:30:30;;;;;;;2.78;0.80;;;22.50;99.90;;;;;;5114417;28;20211;-53
2023/08/02 12:32:57;;;;;;;3.30;0.75;;;22.50;99.90;;;;;;5113051;28;20236;-50
2023/08/02 12:35:23;;;;;;;2.45;0.95;;;22.50;99.90;;;;;;5114361;28;20188;-48
2023/08/02 12:37:50;;;;;;;4.07;0.85;;;22.60;99.90;;;;;;5114292;28;20526;-50
2023/08/02 12:40:17;;;;;;;2.40;0.90;;;22.80;99.90;;;;;;5113013;28;20176;-52
2023/08/02 12:42:42;;;;;;;4.00;0.80;;;22.70;99.90;;;;;;5114148;28;20521;-51
2023/08/02 12:45:08;;;;;;;4.93;1.00;;;22.50;99.90;;;;;;5114403;28;20176;-48
2023/08/02 12:47:34;;;;;;;2.45;0.80;;;22.20;99.90;;;;;;5112993;28;20241;-52
2023/08/02 12:50:00;;;;;;;4.05;0.80;;;22.20;99.90;;;;;;5114113;28;20166;-52